Easton, Maryland
Current Conditions -  °F | °C
As of 9:55 AM on Monday 24 Nov 2014 (Local Time) from KESN Reporting Station
Scattered Clouds Scattered Clouds  
Wind Chill: 70°   Ceiling: Unl
Heat Index: 70°   Visibility: 10mi
Dew Point: 68°   Wind: 14mph
Humidity: 94%   Direction: 210°SSW
Pressure: 29.76"   Gusts: 29mph
Location:  38.78°N, 76.06°W
Report Text: KESN 241455Z 21012G25KT 10SM SCT038 21/20 A2976
Loading
Personal Weather Stations






























Interactive Weather Map New forecast layout! Learn more

10-Day Weather Forecast

Advertisements
Track Severe Weather on mobile